Avalon — ZDHB6 — position and weather

sailwx.info

Track history (hours):
 
Tides and Currents Weather Stations Pressure Air Temp Water Temp Dewpoint Dewpoint Depression Visibility Wind Speed Wind Dir Waves Ship Positions

Avalon

Last reported at 2017-Oct-23 17:26 UTC. Time now 2017-Nov-22 16:42 UTC.
Position N 41°11' W 008°42'.
Warning: this ship's position is 29 days out of date.

Date/timePositionNaut miles runAvg speedWind from/ knotsBaromVisibWave heightAir tempDewpointWater temp
2017-Oct-23 17:26N 41°11' W 008°42'0 0.0
2017-Oct-23 16:59N 41°11' W 008°42'0 0.0
2017-Oct-23 16:22N 41°11' W 008°42'0 0.0
2017-Oct-23 15:54N 41°11' W 008°42'0 0.0
2017-Oct-23 15:27N 41°11' W 008°42'0 0.0
2017-Oct-23 14:50N 41°11' W 008°42'0 0.0
2017-Oct-23 14:29N 41°11' W 008°42'0 0.0
2017-Oct-23 13:59N 41°11' W 008°42'0 0.0
2017-Oct-23 13:30N 41°11' W 008°42'0 0.0
2017-Oct-23 13:00N 41°11' W 008°42'1 2.1
2017-Oct-23 12:30N 41°09' W 008°43'2 3.2
2017-Oct-23 12:00N 41°08' W 008°44'2 3.3
2017-Oct-23 11:30N 41°08' W 008°46'1 2.2
2017-Oct-23 10:59N 41°07' W 008°47'0 0.0
2017-Oct-23 10:29N 41°07' W 008°47'0 0.0
2017-Oct-23 09:59N 41°07' W 008°47'0 0.0
2017-Oct-23 09:28N 41°07' W 008°47'0 0.0
2017-Oct-23 09:00N 41°07' W 008°47'0 0.0
2017-Oct-23 08:09N 41°07' W 008°47'0 0.1
2017-Oct-23 07:59N 41°07' W 008°47'0 0.0
2017-Oct-23 07:30N 41°07' W 008°47'0 0.0
2017-Oct-23 07:00N 41°07' W 008°47'0 0.0
2017-Oct-23 06:20N 41°07' W 008°47'0 0.0
2017-Oct-23 05:59N 41°07' W 008°47'0 0.0
2017-Oct-23 05:09N 41°07' W 008°47'0 0.1
2017-Oct-23 04:37N 41°07' W 008°47'0 0.0
2017-Oct-23 02:20N 41°07' W 008°47'0 0.0
2017-Oct-23 01:53N 41°07' W 008°47'0 0.0
2017-Oct-23 01:27N 41°07' W 008°47'0 0.0
2017-Oct-23 00:58N 41°07' W 008°47'0 0.0
2017-Oct-23 00:20N 41°07' W 008°47'0 0.0
2017-Oct-22 23:40N 41°07' W 008°47'0 0.0
2017-Oct-22 23:28N 41°07' W 008°47'0 0.0
2017-Oct-22 22:55N 41°07' W 008°47'0 0.3
2017-Oct-22 22:29N 41°07' W 008°47'50 9.4
2017-Oct-22 17:09N 40°25' W 009°23'6410.6
2017-Oct-22 11:04N 39°24' W 009°51'2 9.5
2017-Oct-22 10:53N 39°22' W 009°52'4 9.7
2017-Oct-22 10:31N 39°19' W 009°52'5 9.7
2017-Oct-22 10:01N 39°14' W 009°53'5 9.2
2017-Oct-22 09:31N 39°09' W 009°54'4 9.0
2017-Oct-22 09:01N 39°05' W 009°54'5 9.6
2017-Oct-22 08:30N 39°00' W 009°54'5 9.7
2017-Oct-22 08:00N 38°55' W 009°55'5 9.6
2017-Oct-22 07:30N 38°50' W 009°56'5 9.9
2017-Oct-22 07:00N 38°46' W 009°56'5 9.9
2017-Oct-22 06:30N 38°41' W 009°56'4 8.8
2017-Oct-22 06:00N 38°37' W 009°53'5 9.6
2017-Oct-22 05:31N 38°33' W 009°49'5 9.2
2017-Oct-22 05:00N 38°30' W 009°44'5 9.7
2017-Oct-22 04:30N 38°27' W 009°40'5 9.7
2017-Oct-22 04:00N 38°24' W 009°35'510.2
2017-Oct-22 03:30N 38°20' W 009°30'510.1
2017-Oct-22 03:00N 38°17' W 009°25'510.2
2017-Oct-22 02:30N 38°14' W 009°20'510.1
2017-Oct-22 02:00N 38°10' W 009°16'510.3
2017-Oct-22 01:30N 38°07' W 009°11'510.1
2017-Oct-22 01:00N 38°03' W 009°06'510.2
2017-Oct-22 00:30N 38°00' W 009°01'510.5
2017-Oct-22 00:00N 37°57' W 008°56'2 4.9
2017-Oct-21 23:30N 37°57' W 008°53'0 0.5
2017-Oct-21 22:58N 37°57' W 008°53'0 0.0
2017-Oct-21 22:30N 37°57' W 008°53'0 0.0
2017-Oct-21 21:58N 37°57' W 008°53'0 0.0
2017-Oct-21 21:28N 37°57' W 008°53'0 0.0
2017-Oct-21 20:58N 37°57' W 008°53'0 0.0
2017-Oct-21 20:22N 37°57' W 008°53'0 0.0
2017-Oct-21 19:58N 37°57' W 008°53'0 0.0
2017-Oct-21 19:28N 37°57' W 008°53'0 0.0
2017-Oct-21 18:58N 37°57' W 008°53'0 0.0
2017-Oct-21 18:28N 37°57' W 008°53'0 0.0
2017-Oct-21 17:58N 37°57' W 008°53'0 0.0
2017-Oct-21 17:28N 37°57' W 008°53'0 0.0
2017-Oct-21 16:58N 37°57' W 008°53'0 0.0
2017-Oct-21 16:29N 37°57' W 008°53'0 0.0
2017-Oct-21 15:59N 37°57' W 008°53'0 0.0
2017-Oct-21 15:29N 37°57' W 008°53'0 0.0
2017-Oct-21 14:55N 37°57' W 008°53'0 0.0
2017-Oct-21 14:28N 37°57' W 008°53'0 0.0
2017-Oct-21 13:30N 37°57' W 008°53'0 0.0
2017-Oct-21 13:00N 37°57' W 008°53'0 0.0
2017-Oct-21 12:30N 37°57' W 008°53'0 0.0
2017-Oct-21 12:00N 37°57' W 008°53'0 0.0
2017-Oct-21 11:28N 37°57' W 008°53'0 0.0
2017-Oct-21 11:00N 37°57' W 008°53'0 0.0
2017-Oct-21 10:30N 37°57' W 008°53'0 0.0
2017-Oct-21 10:01N 37°57' W 008°53'0 0.0
2017-Oct-21 09:28N 37°57' W 008°53'0 0.0
2017-Oct-21 09:00N 37°57' W 008°53'0 0.0
2017-Oct-21 08:30N 37°57' W 008°53'0 0.0
2017-Oct-21 07:59N 37°57' W 008°53'0 0.0
2017-Oct-21 07:28N 37°57' W 008°53'0 0.0
2017-Oct-21 07:00N 37°57' W 008°53'0 0.0
2017-Oct-21 06:30N 37°57' W 008°53'0 0.0
2017-Oct-21 05:59N 37°57' W 008°53'0 0.0
2017-Oct-21 05:29N 37°57' W 008°53'0 0.0
2017-Oct-21 04:58N 37°57' W 008°53'0 0.0
2017-Oct-21 04:28N 37°57' W 008°53'0 0.0
2017-Oct-21 03:55N 37°57' W 008°53'0 0.0
2017-Oct-21 03:29N 37°57' W 008°53'0 0.0
2017-Oct-21 03:00N 37°57' W 008°53'0 0.0
2017-Oct-21 02:30N 37°57' W 008°53'0 0.0
2017-Oct-21 02:00N 37°57' W 008°53'0 0.0
2017-Oct-21 01:30N 37°57' W 008°53'0 0.0
2017-Oct-21 01:00N 37°57' W 008°53'0 0.0
2017-Oct-21 00:29N 37°57' W 008°53'0 0.0
2017-Oct-20 23:59N 37°57' W 008°53'0 0.0
2017-Oct-20 23:29N 37°57' W 008°53'0 0.0
2017-Oct-20 22:55N 37°57' W 008°53'0 0.0
2017-Oct-20 22:28N 37°57' W 008°53'0 0.0
2017-Oct-20 21:57N 37°57' W 008°53'0 0.0
2017-Oct-20 21:30N 37°57' W 008°53'0 0.0
2017-Oct-20 20:59N 37°57' W 008°53'0 0.0
2017-Oct-20 20:29N 37°57' W 008°53'0 0.0
2017-Oct-20 19:59N 37°57' W 008°53'0 0.0
2017-Oct-20 19:30N 37°57' W 008°53'1 1.1
2017-Oct-20 19:01N 37°56' W 008°53'2 4.5
2017-Oct-20 18:29N 37°54' W 008°52'0 0.2
2017-Oct-20 17:59N 37°54' W 008°52'0 0.0
2017-Oct-20 17:28N 37°54' W 008°52'0 0.0
2017-Oct-20 16:58N 37°54' W 008°52'0 0.0
2017-Oct-20 16:29N 37°54' W 008°52'0 0.0
2017-Oct-20 15:58N 37°54' W 008°52'0 0.0
2017-Oct-20 15:28N 37°54' W 008°52'0 0.0
2017-Oct-20 14:58N 37°54' W 008°52'0 0.0
2017-Oct-20 14:00N 37°54' W 008°52'0 0.0
2017-Oct-20 13:30N 37°54' W 008°52'0 0.0
2017-Oct-20 13:00N 37°54' W 008°52'0 0.0
2017-Oct-20 12:30N 37°54' W 008°52'0 0.0
2017-Oct-20 11:59N 37°54' W 008°52'0 0.0
2017-Oct-20 11:29N 37°54' W 008°52'0 0.0
2017-Oct-20 10:59N 37°54' W 008°52'0 0.0
2017-Oct-20 10:29N 37°54' W 008°52'0 0.0
2017-Oct-20 09:59N 37°54' W 008°52'0 0.1
2017-Oct-20 09:30N 37°54' W 008°52'1 1.6
2017-Oct-20 09:01N 37°55' W 008°53'5 9.4
2017-Oct-20 08:30N 37°57' W 008°58'611.5
2017-Oct-20 08:01N 38°00' W 009°04'611.9
2017-Oct-20 07:31N 38°03' W 009°10'612.4
2017-Oct-20 07:01N 38°07' W 009°17'612.4
2017-Oct-20 06:30N 38°10' W 009°23'612.4
2017-Oct-20 06:00N 38°14' W 009°30'612.1
2017-Oct-20 05:31N 38°17' W 009°36'611.8
2017-Oct-20 05:01N 38°21' W 009°43'611.7
2017-Oct-20 04:30N 38°24' W 009°49'611.7
2017-Oct-20 04:00N 38°27' W 009°55'611.7
2017-Oct-20 03:30N 38°31' W 010°01'611.7
2017-Oct-20 03:01N 38°36' W 010°03'611.9
2017-Oct-20 02:30N 38°42' W 010°05'611.6
2017-Oct-20 02:00N 38°48' W 010°05'611.8
2017-Oct-20 01:30N 38°54' W 010°05'611.2
2017-Oct-20 01:00N 38°59' W 010°05'510.9
2017-Oct-20 00:30N 39°05' W 010°05'611.6
2017-Oct-20 00:00N 39°10' W 010°05'612.0
2017-Oct-19 23:30N 39°16' W 010°05'330 9.2
2017-Oct-18 11:47N 43°47' W 005°52'412.4
2017-Oct-18 11:29N 43°45' W 005°48'711.7
2017-Oct-18 10:55N 43°41' W 005°40'612.6
2017-Oct-18 10:27N 43°36' W 005°37'4 9.4
2017-Oct-18 10:01N 43°34' W 005°41'0 0.0
2017-Oct-16 17:33N 43°33' W 005°41'0 0.0
2017-Oct-16 17:30N 43°33' W 005°41'1 1.2
2017-Oct-16 17:00N 43°34' W 005°41'3 5.2
2017-Oct-16 16:30N 43°36' W 005°40'0 0.1
2017-Oct-16 08:09N 43°36' W 005°39'0 0.1
2017-Oct-16 07:39N 43°37' W 005°39'0 0.0
2017-Oct-16 07:27N 43°37' W 005°39'0 0.0
2017-Oct-16 06:57N 43°37' W 005°39'0 0.1
2017-Oct-16 06:27N 43°37' W 005°39'0 0.2
2017-Oct-16 05:57N 43°37' W 005°39'0 0.0
2017-Oct-16 05:27N 43°37' W 005°39'0 0.1
2017-Oct-16 04:57N 43°37' W 005°39'0 0.1
2017-Oct-16 04:27N 43°37' W 005°39'0 0.0
2017-Oct-16 03:57N 43°37' W 005°39'0 0.0
2017-Oct-16 03:27N 43°37' W 005°39'0 0.1
2017-Oct-16 02:57N 43°37' W 005°39'0 0.0
2017-Oct-16 02:27N 43°37' W 005°39'0 0.0
2017-Oct-16 01:57N 43°37' W 005°39'0 0.0
2017-Oct-16 01:09N 43°37' W 005°39'0 0.1
2017-Oct-16 00:57N 43°37' W 005°39'0 0.1
2017-Oct-16 00:27N 43°37' W 005°39'0 0.0
2017-Oct-15 23:57N 43°37' W 005°39'0 0.0
2017-Oct-15 19:15N 43°37' W 005°39'0 0.0
2017-Oct-15 18:51N 43°37' W 005°39'0 0.1
2017-Oct-15 18:27N 43°37' W 005°39'0 0.2
2017-Oct-15 18:00N 43°37' W 005°39'2 4.4
2017-Oct-15 17:30N 43°38' W 005°41'5 9.6
2017-Oct-15 16:59N 43°43' W 005°42'711.9
2017-Oct-15 16:26N 43°47' W 005°50'612.0
2017-Oct-15 15:58N 43°49' W 005°57'612.0
2017-Oct-15 15:29N 43°52' W 006°04'199 7.6
2017-Oct-14 13:26N 41°16' W 008°52'512.3
2017-Oct-14 13:00N 41°12' W 008°47'4 7.6
2017-Oct-14 12:30N 41°11' W 008°42'0 0.7
2017-Oct-14 12:01N 41°11' W 008°43'0 0.0
2017-Oct-14 11:28N 41°11' W 008°43'0 0.0
2017-Oct-14 11:00N 41°11' W 008°43'0 0.0
2017-Oct-14 10:30N 41°11' W 008°43'0 0.0
2017-Oct-14 10:00N 41°11' W 008°43'0 0.0
2017-Oct-14 09:28N 41°11' W 008°43'0 0.0
2017-Oct-14 09:00N 41°11' W 008°43'0 0.0
2017-Oct-14 08:30N 41°11' W 008°43'0 0.0
2017-Oct-14 07:56N 41°11' W 008°43'0 0.0
2017-Oct-14 07:28N 41°11' W 008°43'0 0.0
2017-Oct-14 06:58N 41°11' W 008°43'0 0.0
2017-Oct-14 06:30N 41°11' W 008°43'0 0.0
2017-Oct-14 06:01N 41°11' W 008°43'0 0.0
2017-Oct-14 05:31N 41°11' W 008°43'0 0.0
2017-Oct-14 04:59N 41°11' W 008°43'0 0.0
2017-Oct-14 04:30N 41°11' W 008°43'0 0.0
2017-Oct-14 03:57N 41°11' W 008°43'0 0.0
2017-Oct-14 03:30N 41°11' W 008°43'0 0.0
2017-Oct-14 02:59N 41°11' W 008°43'0 0.0
2017-Oct-14 02:29N 41°11' W 008°43'0 0.0
2017-Oct-14 02:01N 41°11' W 008°43'0 0.0
2017-Oct-14 01:30N 41°11' W 008°43'0 0.0
2017-Oct-14 00:59N 41°11' W 008°43'0 0.0
2017-Oct-14 00:29N 41°11' W 008°43'0 0.0
2017-Oct-13 23:59N 41°11' W 008°43'0 0.0
2017-Oct-13 23:29N 41°11' W 008°43'0 0.0
2017-Oct-13 22:59N 41°11' W 008°43'0 0.0
2017-Oct-13 22:30N 41°11' W 008°43'0 0.0
2017-Oct-13 22:00N 41°11' W 008°43'0 0.0
2017-Oct-13 21:30N 41°11' W 008°43'0 0.0
2017-Oct-13 21:00N 41°11' W 008°43'0 0.0
2017-Oct-13 20:28N 41°11' W 008°43'0 0.0
2017-Oct-13 20:00N 41°11' W 008°43'0 0.0
2017-Oct-13 19:29N 41°11' W 008°43'0 0.0
2017-Oct-13 18:54N 41°11' W 008°43'0 0.0
2017-Oct-13 18:29N 41°11' W 008°43'0 0.0
2017-Oct-13 18:00N 41°11' W 008°43'0 0.0
2017-Oct-13 17:30N 41°11' W 008°43'  
Track history (hours):
 
Tides and Currents Weather Stations Pressure Air Temp Water Temp Dewpoint Dewpoint Depression Visibility Wind Speed Wind Dir Waves Ship Positions

Avalon

Last reported at 2017-Oct-23 17:26 UTC. Time now 2017-Nov-22 16:42 UTC.
Position N 41°11' W 008°42'.
Warning: this ship's position is 29 days out of date.

Date/timePositionNaut miles runAvg speedWind from/ knotsBaromVisibWave heightAir tempDewpointWater temp
2017-Oct-23 17:26N 41°11' W 008°42'0 0.0
2017-Oct-23 16:59N 41°11' W 008°42'0 0.0
2017-Oct-23 16:22N 41°11' W 008°42'0 0.0
2017-Oct-23 15:54N 41°11' W 008°42'0 0.0
2017-Oct-23 15:27N 41°11' W 008°42'0 0.0
2017-Oct-23 14:50N 41°11' W 008°42'0 0.0
2017-Oct-23 14:29N 41°11' W 008°42'0 0.0
2017-Oct-23 13:59N 41°11' W 008°42'0 0.0
2017-Oct-23 13:30N 41°11' W 008°42'0 0.0
2017-Oct-23 13:00N 41°11' W 008°42'1 2.1
2017-Oct-23 12:30N 41°09' W 008°43'2 3.2
2017-Oct-23 12:00N 41°08' W 008°44'2 3.3
2017-Oct-23 11:30N 41°08' W 008°46'1 2.2
2017-Oct-23 10:59N 41°07' W 008°47'0 0.0
2017-Oct-23 10:29N 41°07' W 008°47'0 0.0
2017-Oct-23 09:59N 41°07' W 008°47'0 0.0
2017-Oct-23 09:28N 41°07' W 008°47'0 0.0
2017-Oct-23 09:00N 41°07' W 008°47'0 0.0
2017-Oct-23 08:09N 41°07' W 008°47'0 0.1
2017-Oct-23 07:59N 41°07' W 008°47'0 0.0
2017-Oct-23 07:30N 41°07' W 008°47'0 0.0
2017-Oct-23 07:00N 41°07' W 008°47'0 0.0
2017-Oct-23 06:20N 41°07' W 008°47'0 0.0
2017-Oct-23 05:59N 41°07' W 008°47'0 0.0
2017-Oct-23 05:09N 41°07' W 008°47'0 0.1
2017-Oct-23 04:37N 41°07' W 008°47'0 0.0
2017-Oct-23 02:20N 41°07' W 008°47'0 0.0
2017-Oct-23 01:53N 41°07' W 008°47'0 0.0
2017-Oct-23 01:27N 41°07' W 008°47'0 0.0
2017-Oct-23 00:58N 41°07' W 008°47'0 0.0
2017-Oct-23 00:20N 41°07' W 008°47'0 0.0
2017-Oct-22 23:40N 41°07' W 008°47'0 0.0
2017-Oct-22 23:28N 41°07' W 008°47'0 0.0
2017-Oct-22 22:55N 41°07' W 008°47'0 0.3
2017-Oct-22 22:29N 41°07' W 008°47'50 9.4
2017-Oct-22 17:09N 40°25' W 009°23'6410.6
2017-Oct-22 11:04N 39°24' W 009°51'2 9.5
2017-Oct-22 10:53N 39°22' W 009°52'4 9.7
2017-Oct-22 10:31N 39°19' W 009°52'5 9.7
2017-Oct-22 10:01N 39°14' W 009°53'5 9.2
2017-Oct-22 09:31N 39°09' W 009°54'4 9.0
2017-Oct-22 09:01N 39°05' W 009°54'5 9.6
2017-Oct-22 08:30N 39°00' W 009°54'5 9.7
2017-Oct-22 08:00N 38°55' W 009°55'5 9.6
2017-Oct-22 07:30N 38°50' W 009°56'5 9.9
2017-Oct-22 07:00N 38°46' W 009°56'5 9.9
2017-Oct-22 06:30N 38°41' W 009°56'4 8.8
2017-Oct-22 06:00N 38°37' W 009°53'5 9.6
2017-Oct-22 05:31N 38°33' W 009°49'5 9.2
2017-Oct-22 05:00N 38°30' W 009°44'5 9.7
2017-Oct-22 04:30N 38°27' W 009°40'5 9.7
2017-Oct-22 04:00N 38°24' W 009°35'510.2
2017-Oct-22 03:30N 38°20' W 009°30'510.1
2017-Oct-22 03:00N 38°17' W 009°25'510.2
2017-Oct-22 02:30N 38°14' W 009°20'510.1
2017-Oct-22 02:00N 38°10' W 009°16'510.3
2017-Oct-22 01:30N 38°07' W 009°11'510.1
2017-Oct-22 01:00N 38°03' W 009°06'510.2
2017-Oct-22 00:30N 38°00' W 009°01'510.5
2017-Oct-22 00:00N 37°57' W 008°56'2 4.9
2017-Oct-21 23:30N 37°57' W 008°53'0 0.5
2017-Oct-21 22:58N 37°57' W 008°53'0 0.0
2017-Oct-21 22:30N 37°57' W 008°53'0 0.0
2017-Oct-21 21:58N 37°57' W 008°53'0 0.0
2017-Oct-21 21:28N 37°57' W 008°53'0 0.0
2017-Oct-21 20:58N 37°57' W 008°53'0 0.0
2017-Oct-21 20:22N 37°57' W 008°53'0 0.0
2017-Oct-21 19:58N 37°57' W 008°53'0 0.0
2017-Oct-21 19:28N 37°57' W 008°53'0 0.0
2017-Oct-21 18:58N 37°57' W 008°53'0 0.0
2017-Oct-21 18:28N 37°57' W 008°53'0 0.0
2017-Oct-21 17:58N 37°57' W 008°53'0 0.0
2017-Oct-21 17:28N 37°57' W 008°53'0 0.0
2017-Oct-21 16:58N 37°57' W 008°53'0 0.0
2017-Oct-21 16:29N 37°57' W 008°53'0 0.0
2017-Oct-21 15:59N 37°57' W 008°53'0 0.0
2017-Oct-21 15:29N 37°57' W 008°53'0 0.0
2017-Oct-21 14:55N 37°57' W 008°53'0 0.0
2017-Oct-21 14:28N 37°57' W 008°53'0 0.0
2017-Oct-21 13:30N 37°57' W 008°53'0 0.0
2017-Oct-21 13:00N 37°57' W 008°53'0 0.0
2017-Oct-21 12:30N 37°57' W 008°53'0 0.0
2017-Oct-21 12:00N 37°57' W 008°53'0 0.0
2017-Oct-21 11:28N 37°57' W 008°53'0 0.0
2017-Oct-21 11:00N 37°57' W 008°53'0 0.0
2017-Oct-21 10:30N 37°57' W 008°53'0 0.0
2017-Oct-21 10:01N 37°57' W 008°53'0 0.0
2017-Oct-21 09:28N 37°57' W 008°53'0 0.0
2017-Oct-21 09:00N 37°57' W 008°53'0 0.0
2017-Oct-21 08:30N 37°57' W 008°53'0 0.0
2017-Oct-21 07:59N 37°57' W 008°53'0 0.0
2017-Oct-21 07:28N 37°57' W 008°53'0 0.0
2017-Oct-21 07:00N 37°57' W 008°53'0 0.0
2017-Oct-21 06:30N 37°57' W 008°53'0 0.0
2017-Oct-21 05:59N 37°57' W 008°53'0 0.0
2017-Oct-21 05:29N 37°57' W 008°53'0 0.0
2017-Oct-21 04:58N 37°57' W 008°53'0 0.0
2017-Oct-21 04:28N 37°57' W 008°53'0 0.0
2017-Oct-21 03:55N 37°57' W 008°53'0 0.0
2017-Oct-21 03:29N 37°57' W 008°53'0 0.0
2017-Oct-21 03:00N 37°57' W 008°53'0 0.0
2017-Oct-21 02:30N 37°57' W 008°53'0 0.0
2017-Oct-21 02:00N 37°57' W 008°53'0 0.0
2017-Oct-21 01:30N 37°57' W 008°53'0 0.0
2017-Oct-21 01:00N 37°57' W 008°53'0 0.0
2017-Oct-21 00:29N 37°57' W 008°53'0 0.0
2017-Oct-20 23:59N 37°57' W 008°53'0 0.0
2017-Oct-20 23:29N 37°57' W 008°53'0 0.0
2017-Oct-20 22:55N 37°57' W 008°53'0 0.0
2017-Oct-20 22:28N 37°57' W 008°53'0 0.0
2017-Oct-20 21:57N 37°57' W 008°53'0 0.0
2017-Oct-20 21:30N 37°57' W 008°53'0 0.0
2017-Oct-20 20:59N 37°57' W 008°53'0 0.0
2017-Oct-20 20:29N 37°57' W 008°53'0 0.0
2017-Oct-20 19:59N 37°57' W 008°53'0 0.0
2017-Oct-20 19:30N 37°57' W 008°53'1 1.1
2017-Oct-20 19:01N 37°56' W 008°53'2 4.5
2017-Oct-20 18:29N 37°54' W 008°52'0 0.2
2017-Oct-20 17:59N 37°54' W 008°52'0 0.0
2017-Oct-20 17:28N 37°54' W 008°52'0 0.0
2017-Oct-20 16:58N 37°54' W 008°52'0 0.0
2017-Oct-20 16:29N 37°54' W 008°52'0 0.0
2017-Oct-20 15:58N 37°54' W 008°52'0 0.0
2017-Oct-20 15:28N 37°54' W 008°52'0 0.0
2017-Oct-20 14:58N 37°54' W 008°52'0 0.0
2017-Oct-20 14:00N 37°54' W 008°52'0 0.0
2017-Oct-20 13:30N 37°54' W 008°52'0 0.0
2017-Oct-20 13:00N 37°54' W 008°52'0 0.0
2017-Oct-20 12:30N 37°54' W 008°52'0 0.0
2017-Oct-20 11:59N 37°54' W 008°52'0 0.0
2017-Oct-20 11:29N 37°54' W 008°52'0 0.0
2017-Oct-20 10:59N 37°54' W 008°52'0 0.0
2017-Oct-20 10:29N 37°54' W 008°52'0 0.0
2017-Oct-20 09:59N 37°54' W 008°52'0 0.1
2017-Oct-20 09:30N 37°54' W 008°52'1 1.6
2017-Oct-20 09:01N 37°55' W 008°53'5 9.4
2017-Oct-20 08:30N 37°57' W 008°58'611.5
2017-Oct-20 08:01N 38°00' W 009°04'611.9
2017-Oct-20 07:31N 38°03' W 009°10'612.4
2017-Oct-20 07:01N 38°07' W 009°17'612.4
2017-Oct-20 06:30N 38°10' W 009°23'612.4
2017-Oct-20 06:00N 38°14' W 009°30'612.1
2017-Oct-20 05:31N 38°17' W 009°36'611.8
2017-Oct-20 05:01N 38°21' W 009°43'611.7
2017-Oct-20 04:30N 38°24' W 009°49'611.7
2017-Oct-20 04:00N 38°27' W 009°55'611.7
2017-Oct-20 03:30N 38°31' W 010°01'611.7
2017-Oct-20 03:01N 38°36' W 010°03'611.9
2017-Oct-20 02:30N 38°42' W 010°05'611.6
2017-Oct-20 02:00N 38°48' W 010°05'611.8
2017-Oct-20 01:30N 38°54' W 010°05'611.2
2017-Oct-20 01:00N 38°59' W 010°05'510.9
2017-Oct-20 00:30N 39°05' W 010°05'611.6
2017-Oct-20 00:00N 39°10' W 010°05'612.0
2017-Oct-19 23:30N 39°16' W 010°05'330 9.2
2017-Oct-18 11:47N 43°47' W 005°52'412.4
2017-Oct-18 11:29N 43°45' W 005°48'711.7
2017-Oct-18 10:55N 43°41' W 005°40'612.6
2017-Oct-18 10:27N 43°36' W 005°37'4 9.4
2017-Oct-18 10:01N 43°34' W 005°41'0 0.0
2017-Oct-16 17:33N 43°33' W 005°41'0 0.0
2017-Oct-16 17:30N 43°33' W 005°41'1 1.2
2017-Oct-16 17:00N 43°34' W 005°41'3 5.2
2017-Oct-16 16:30N 43°36' W 005°40'0 0.1
2017-Oct-16 08:09N 43°36' W 005°39'0 0.1
2017-Oct-16 07:39N 43°37' W 005°39'0 0.0
2017-Oct-16 07:27N 43°37' W 005°39'0 0.0
2017-Oct-16 06:57N 43°37' W 005°39'0 0.1
2017-Oct-16 06:27N 43°37' W 005°39'0 0.2
2017-Oct-16 05:57N 43°37' W 005°39'0 0.0
2017-Oct-16 05:27N 43°37' W 005°39'0 0.1
2017-Oct-16 04:57N 43°37' W 005°39'0 0.1
2017-Oct-16 04:27N 43°37' W 005°39'0 0.0
2017-Oct-16 03:57N 43°37' W 005°39'0 0.0
2017-Oct-16 03:27N 43°37' W 005°39'0 0.1
2017-Oct-16 02:57N 43°37' W 005°39'0 0.0
2017-Oct-16 02:27N 43°37' W 005°39'0 0.0
2017-Oct-16 01:57N 43°37' W 005°39'0 0.0
2017-Oct-16 01:09N 43°37' W 005°39'0 0.1
2017-Oct-16 00:57N 43°37' W 005°39'0 0.1
2017-Oct-16 00:27N 43°37' W 005°39'0 0.0
2017-Oct-15 23:57N 43°37' W 005°39'0 0.0
2017-Oct-15 19:15N 43°37' W 005°39'0 0.0
2017-Oct-15 18:51N 43°37' W 005°39'0 0.1
2017-Oct-15 18:27N 43°37' W 005°39'0 0.2
2017-Oct-15 18:00N 43°37' W 005°39'2 4.4
2017-Oct-15 17:30N 43°38' W 005°41'5 9.6
2017-Oct-15 16:59N 43°43' W 005°42'711.9
2017-Oct-15 16:26N 43°47' W 005°50'612.0
2017-Oct-15 15:58N 43°49' W 005°57'612.0
2017-Oct-15 15:29N 43°52' W 006°04'199 7.6
2017-Oct-14 13:26N 41°16' W 008°52'512.3
2017-Oct-14 13:00N 41°12' W 008°47'4 7.6
2017-Oct-14 12:30N 41°11' W 008°42'0 0.7
2017-Oct-14 12:01N 41°11' W 008°43'0 0.0
2017-Oct-14 11:28N 41°11' W 008°43'0 0.0
2017-Oct-14 11:00N 41°11' W 008°43'0 0.0
2017-Oct-14 10:30N 41°11' W 008°43'0 0.0
2017-Oct-14 10:00N 41°11' W 008°43'0 0.0
2017-Oct-14 09:28N 41°11' W 008°43'0 0.0
2017-Oct-14 09:00N 41°11' W 008°43'0 0.0
2017-Oct-14 08:30N 41°11' W 008°43'0 0.0
2017-Oct-14 07:56N 41°11' W 008°43'0 0.0
2017-Oct-14 07:28N 41°11' W 008°43'0 0.0
2017-Oct-14 06:58N 41°11' W 008°43'0 0.0
2017-Oct-14 06:30N 41°11' W 008°43'0 0.0
2017-Oct-14 06:01N 41°11' W 008°43'0 0.0
2017-Oct-14 05:31N 41°11' W 008°43'0 0.0
2017-Oct-14 04:59N 41°11' W 008°43'0 0.0
2017-Oct-14 04:30N 41°11' W 008°43'0 0.0
2017-Oct-14 03:57N 41°11' W 008°43'0 0.0
2017-Oct-14 03:30N 41°11' W 008°43'0 0.0
2017-Oct-14 02:59N 41°11' W 008°43'0 0.0
2017-Oct-14 02:29N 41°11' W 008°43'0 0.0
2017-Oct-14 02:01N 41°11' W 008°43'0 0.0
2017-Oct-14 01:30N 41°11' W 008°43'0 0.0
2017-Oct-14 00:59N 41°11' W 008°43'0 0.0
2017-Oct-14 00:29N 41°11' W 008°43'0 0.0
2017-Oct-13 23:59N 41°11' W 008°43'0 0.0
2017-Oct-13 23:29N 41°11' W 008°43'0 0.0
2017-Oct-13 22:59N 41°11' W 008°43'0 0.0
2017-Oct-13 22:30N 41°11' W 008°43'0 0.0
2017-Oct-13 22:00N 41°11' W 008°43'0 0.0
2017-Oct-13 21:30N 41°11' W 008°43'0 0.0
2017-Oct-13 21:00N 41°11' W 008°43'0 0.0
2017-Oct-13 20:28N 41°11' W 008°43'0 0.0
2017-Oct-13 20:00N 41°11' W 008°43'0 0.0
2017-Oct-13 19:29N 41°11' W 008°43'0 0.0
2017-Oct-13 18:54N 41°11' W 008°43'0 0.0
2017-Oct-13 18:29N 41°11' W 008°43'0 0.0
2017-Oct-13 18:00N 41°11' W 008°43'0 0.0
2017-Oct-13 17:30N 41°11' W 008°43'  

Dump ship's entire track history